sensor_id;sensor_type;location;lat;lon;timestamp;P1;durP1;ratioP1;P2;durP2;ratioP2
22715;SDS011;11525;51.152;4.456;2023-03-21T00:00:34;18.67;;;7.85;;
22715;SDS011;11525;51.152;4.456;2023-03-21T00:03:00;16.92;;;8.48;;
22715;SDS011;11525;51.152;4.456;2023-03-21T00:05:26;15.57;;;7.70;;
22715;SDS011;11525;51.152;4.456;2023-03-21T00:07:52;12.68;;;7.35;;
22715;SDS011;11525;51.152;4.456;2023-03-21T00:10:18;14.63;;;7.38;;
22715;SDS011;11525;51.152;4.456;2023-03-21T00:12:44;11.82;;;7.40;;
22715;SDS011;11525;51.152;4.456;2023-03-21T00:15:10;11.93;;;7.28;;
22715;SDS011;11525;51.152;4.456;2023-03-21T00:17:37;13.50;;;7.07;;
22715;SDS011;11525;51.152;4.456;2023-03-21T00:20:04;14.95;;;7.05;;
22715;SDS011;11525;51.152;4.456;2023-03-21T00:22:33;19.85;;;8.07;;
22715;SDS011;11525;51.152;4.456;2023-03-21T00:25:00;16.65;;;7.55;;
22715;SDS011;11525;51.152;4.456;2023-03-21T00:27:25;16.45;;;8.70;;
22715;SDS011;11525;51.152;4.456;2023-03-21T00:29:51;20.05;;;7.85;;
22715;SDS011;11525;51.152;4.456;2023-03-21T00:32:17;13.02;;;8.02;;
22715;SDS011;11525;51.152;4.456;2023-03-21T00:34:45;16.77;;;7.90;;
22715;SDS011;11525;51.152;4.456;2023-03-21T00:37:11;17.80;;;8.40;;
22715;SDS011;11525;51.152;4.456;2023-03-21T00:39:40;17.30;;;7.82;;
22715;SDS011;11525;51.152;4.456;2023-03-21T00:42:08;15.68;;;7.85;;
22715;SDS011;11525;51.152;4.456;2023-03-21T00:44:34;15.35;;;7.60;;
22715;SDS011;11525;51.152;4.456;2023-03-21T00:47:03;17.58;;;8.05;;
22715;SDS011;11525;51.152;4.456;2023-03-21T00:49:29;11.63;;;7.00;;
22715;SDS011;11525;51.152;4.456;2023-03-21T00:51:59;16.60;;;8.15;;
22715;SDS011;11525;51.152;4.456;2023-03-21T00:54:25;18.73;;;8.63;;
22715;SDS011;11525;51.152;4.456;2023-03-21T00:56:51;12.90;;;7.20;;
22715;SDS011;11525;51.152;4.456;2023-03-21T00:59:16;17.73;;;7.82;;
22715;SDS011;11525;51.152;4.456;2023-03-21T01:01:42;15.50;;;7.10;;
22715;SDS011;11525;51.152;4.456;2023-03-21T01:04:10;13.95;;;7.82;;
22715;SDS011;11525;51.152;4.456;2023-03-21T01:06:38;17.63;;;8.18;;
22715;SDS011;11525;51.152;4.456;2023-03-21T01:09:11;18.33;;;7.97;;
22715;SDS011;11525;51.152;4.456;2023-03-21T01:11:39;11.50;;;7.38;;
22715;SDS011;11525;51.152;4.456;2023-03-21T01:14:06;12.88;;;7.75;;
22715;SDS011;11525;51.152;4.456;2023-03-21T01:16:31;14.07;;;7.95;;
22715;SDS011;11525;51.152;4.456;2023-03-21T01:18:57;12.82;;;7.60;;
22715;SDS011;11525;51.152;4.456;2023-03-21T01:21:23;17.45;;;8.52;;
22715;SDS011;11525;51.152;4.456;2023-03-21T01:23:49;15.27;;;7.55;;
22715;SDS011;11525;51.152;4.456;2023-03-21T01:26:15;14.18;;;7.95;;
22715;SDS011;11525;51.152;4.456;2023-03-21T01:28:42;16.40;;;8.00;;
22715;SDS011;11525;51.152;4.456;2023-03-21T01:31:10;13.00;;;7.65;;
22715;SDS011;11525;51.152;4.456;2023-03-21T01:33:37;14.93;;;8.52;;
22715;SDS011;11525;51.152;4.456;2023-03-21T01:36:03;21.13;;;8.52;;
22715;SDS011;11525;51.152;4.456;2023-03-21T01:38:30;16.88;;;8.13;;
22715;SDS011;11525;51.152;4.456;2023-03-21T01:40:58;16.70;;;8.07;;
22715;SDS011;11525;51.152;4.456;2023-03-21T01:43:28;14.57;;;8.43;;
22715;SDS011;11525;51.152;4.456;2023-03-21T01:48:29;14.70;;;8.48;;
22715;SDS011;11525;51.152;4.456;2023-03-21T01:50:56;16.02;;;7.78;;
22715;SDS011;11525;51.152;4.456;2023-03-21T01:53:24;18.23;;;8.95;;
22715;SDS011;11525;51.152;4.456;2023-03-21T01:55:58;17.70;;;8.05;;
22715;SDS011;11525;51.152;4.456;2023-03-21T01:58:27;16.80;;;8.80;;
22715;SDS011;11525;51.152;4.456;2023-03-21T02:00:54;16.73;;;7.70;;
22715;SDS011;11525;51.152;4.456;2023-03-21T02:03:20;16.20;;;8.07;;
22715;SDS011;11525;51.152;4.456;2023-03-21T02:08:28;19.13;;;8.10;;
22715;SDS011;11525;51.152;4.456;2023-03-21T02:10:56;17.60;;;8.25;;
22715;SDS011;11525;51.152;4.456;2023-03-21T02:13:23;20.65;;;8.50;;
22715;SDS011;11525;51.152;4.456;2023-03-21T02:15:52;19.95;;;8.70;;
22715;SDS011;11525;51.152;4.456;2023-03-21T02:18:27;15.95;;;8.10;;
22715;SDS011;11525;51.152;4.456;2023-03-21T02:29:27;17.40;;;8.20;;
22715;SDS011;11525;51.152;4.456;2023-03-21T02:37:31;13.63;;;7.55;;
22715;SDS011;11525;51.152;4.456;2023-03-21T02:47:40;14.18;;;7.20;;
22715;SDS011;11525;51.152;4.456;2023-03-21T02:52:44;21.23;;;7.80;;
22715;SDS011;11525;51.152;4.456;2023-03-21T02:55:13;15.63;;;7.75;;
22715;SDS011;11525;51.152;4.456;2023-03-21T02:57:43;11.63;;;7.43;;
22715;SDS011;11525;51.152;4.456;2023-03-21T03:00:15;15.02;;;8.25;;
22715;SDS011;11525;51.152;4.456;2023-03-21T03:02:43;16.23;;;7.45;;
22715;SDS011;11525;51.152;4.456;2023-03-21T03:05:14;16.80;;;8.32;;
22715;SDS011;11525;51.152;4.456;2023-03-21T03:07:48;15.93;;;8.10;;
22715;SDS011;11525;51.152;4.456;2023-03-21T03:18:40;12.73;;;6.85;;
22715;SDS011;11525;51.152;4.456;2023-03-21T03:21:31;11.48;;;7.00;;
22715;SDS011;11525;51.152;4.456;2023-03-21T03:24:02;16.85;;;7.72;;
22715;SDS011;11525;51.152;4.456;2023-03-21T03:26:47;14.30;;;7.40;;
22715;SDS011;11525;51.152;4.456;2023-03-21T03:29:18;17.83;;;7.72;;
22715;SDS011;11525;51.152;4.456;2023-03-21T03:31:50;13.88;;;7.72;;
22715;SDS011;11525;51.152;4.456;2023-03-21T03:34:26;16.58;;;7.72;;
22715;SDS011;11525;51.152;4.456;2023-03-21T03:37:00;14.00;;;7.68;;
22715;SDS011;11525;51.152;4.456;2023-03-21T03:39:32;16.63;;;8.00;;
22715;SDS011;11525;51.152;4.456;2023-03-21T03:42:02;17.67;;;7.85;;
22715;SDS011;11525;51.152;4.456;2023-03-21T03:44:31;14.70;;;7.38;;
22715;SDS011;11525;51.152;4.456;2023-03-21T03:49:26;15.98;;;7.20;;
22715;SDS011;11525;51.152;4.456;2023-03-21T03:51:58;10.80;;;7.13;;
22715;SDS011;11525;51.152;4.456;2023-03-21T03:54:29;17.58;;;7.60;;
22715;SDS011;11525;51.152;4.456;2023-03-21T03:57:00;22.77;;;6.95;;
22715;SDS011;11525;51.152;4.456;2023-03-21T03:59:26;20.25;;;7.68;;
22715;SDS011;11525;51.152;4.456;2023-03-21T04:01:52;14.95;;;7.13;;
22715;SDS011;11525;51.152;4.456;2023-03-21T04:04:17;14.02;;;7.32;;
22715;SDS011;11525;51.152;4.456;2023-03-21T04:06:46;15.63;;;7.43;;
22715;SDS011;11525;51.152;4.456;2023-03-21T04:09:16;14.15;;;7.10;;
22715;SDS011;11525;51.152;4.456;2023-03-21T04:11:42;19.17;;;8.05;;
22715;SDS011;11525;51.152;4.456;2023-03-21T04:14:08;15.85;;;6.93;;
22715;SDS011;11525;51.152;4.456;2023-03-21T04:16:34;14.40;;;6.55;;
22715;SDS011;11525;51.152;4.456;2023-03-21T04:19:00;16.63;;;7.45;;
22715;SDS011;11525;51.152;4.456;2023-03-21T04:21:26;16.45;;;6.32;;
22715;SDS011;11525;51.152;4.456;2023-03-21T04:23:53;16.75;;;6.55;;
22715;SDS011;11525;51.152;4.456;2023-03-21T04:26:19;15.73;;;6.45;;
22715;SDS011;11525;51.152;4.456;2023-03-21T04:28:46;15.63;;;6.78;;
22715;SDS011;11525;51.152;4.456;2023-03-21T04:31:13;16.60;;;6.40;;
22715;SDS011;11525;51.152;4.456;2023-03-21T04:33:39;15.32;;;6.05;;
22715;SDS011;11525;51.152;4.456;2023-03-21T04:36:05;22.27;;;7.25;;
22715;SDS011;11525;51.152;4.456;2023-03-21T04:38:33;11.45;;;6.35;;
22715;SDS011;11525;51.152;4.456;2023-03-21T04:41:00;12.77;;;6.32;;
22715;SDS011;11525;51.152;4.456;2023-03-21T04:43:26;12.15;;;6.30;;
22715;SDS011;11525;51.152;4.456;2023-03-21T04:45:52;18.63;;;6.57;;
22715;SDS011;11525;51.152;4.456;2023-03-21T04:48:19;19.98;;;6.90;;
22715;SDS011;11525;51.152;4.456;2023-03-21T04:50:48;16.90;;;6.90;;
22715;SDS011;11525;51.152;4.456;2023-03-21T04:53:15;16.42;;;6.60;;
22715;SDS011;11525;51.152;4.456;2023-03-21T04:55:41;12.55;;;6.82;;
22715;SDS011;11525;51.152;4.456;2023-03-21T04:58:07;15.32;;;7.10;;
22715;SDS011;11525;51.152;4.456;2023-03-21T05:00:33;18.67;;;6.20;;
22715;SDS011;11525;51.152;4.456;2023-03-21T05:03:05;14.43;;;7.13;;
22715;SDS011;11525;51.152;4.456;2023-03-21T05:05:35;17.98;;;7.45;;
22715;SDS011;11525;51.152;4.456;2023-03-21T05:08:01;14.45;;;6.97;;
22715;SDS011;11525;51.152;4.456;2023-03-21T05:10:28;17.42;;;7.80;;
22715;SDS011;11525;51.152;4.456;2023-03-21T05:12:54;16.65;;;6.57;;
22715;SDS011;11525;51.152;4.456;2023-03-21T05:15:20;15.57;;;6.55;;
22715;SDS011;11525;51.152;4.456;2023-03-21T05:17:45;16.58;;;7.53;;
22715;SDS011;11525;51.152;4.456;2023-03-21T05:20:13;19.20;;;6.93;;
22715;SDS011;11525;51.152;4.456;2023-03-21T05:22:40;19.20;;;7.15;;
22715;SDS011;11525;51.152;4.456;2023-03-21T05:25:08;19.58;;;7.75;;
22715;SDS011;11525;51.152;4.456;2023-03-21T05:27:35;19.40;;;7.88;;
22715;SDS011;11525;51.152;4.456;2023-03-21T05:30:04;22.17;;;7.47;;
22715;SDS011;11525;51.152;4.456;2023-03-21T05:32:32;17.23;;;8.05;;
22715;SDS011;11525;51.152;4.456;2023-03-21T05:34:58;19.27;;;7.45;;
22715;SDS011;11525;51.152;4.456;2023-03-21T05:37:24;23.90;;;8.00;;
22715;SDS011;11525;51.152;4.456;2023-03-21T05:39:49;17.60;;;7.45;;
22715;SDS011;11525;51.152;4.456;2023-03-21T05:42:15;21.55;;;8.45;;
22715;SDS011;11525;51.152;4.456;2023-03-21T05:44:42;16.00;;;8.10;;
22715;SDS011;11525;51.152;4.456;2023-03-21T05:47:09;17.67;;;8.02;;
22715;SDS011;11525;51.152;4.456;2023-03-21T05:49:35;16.58;;;8.68;;
22715;SDS011;11525;51.152;4.456;2023-03-21T05:52:01;21.58;;;9.00;;
22715;SDS011;11525;51.152;4.456;2023-03-21T05:54:27;22.45;;;8.43;;
22715;SDS011;11525;51.152;4.456;2023-03-21T05:56:53;20.75;;;8.45;;
22715;SDS011;11525;51.152;4.456;2023-03-21T05:59:18;20.15;;;8.02;;
22715;SDS011;11525;51.152;4.456;2023-03-21T06:01:44;19.70;;;8.85;;
22715;SDS011;11525;51.152;4.456;2023-03-21T06:04:10;29.13;;;9.63;;
22715;SDS011;11525;51.152;4.456;2023-03-21T06:06:36;25.40;;;8.90;;
22715;SDS011;11525;51.152;4.456;2023-03-21T06:09:02;21.13;;;8.75;;
22715;SDS011;11525;51.152;4.456;2023-03-21T06:11:28;20.75;;;9.50;;
22715;SDS011;11525;51.152;4.456;2023-03-21T06:13:56;23.70;;;10.07;;
22715;SDS011;11525;51.152;4.456;2023-03-21T06:16:22;25.50;;;10.55;;
22715;SDS011;11525;51.152;4.456;2023-03-21T06:18:47;23.23;;;10.88;;
22715;SDS011;11525;51.152;4.456;2023-03-21T06:21:13;21.88;;;10.57;;
22715;SDS011;11525;51.152;4.456;2023-03-21T06:23:39;26.77;;;10.68;;
22715;SDS011;11525;51.152;4.456;2023-03-21T06:26:05;28.23;;;12.23;;
22715;SDS011;11525;51.152;4.456;2023-03-21T06:28:31;21.80;;;10.50;;
22715;SDS011;11525;51.152;4.456;2023-03-21T06:30:56;21.90;;;10.20;;
22715;SDS011;11525;51.152;4.456;2023-03-21T06:33:22;29.30;;;11.68;;
22715;SDS011;11525;51.152;4.456;2023-03-21T06:35:52;25.52;;;10.65;;
22715;SDS011;11525;51.152;4.456;2023-03-21T06:38:19;20.08;;;10.63;;
22715;SDS011;11525;51.152;4.456;2023-03-21T06:40:45;21.30;;;10.13;;
22715;SDS011;11525;51.152;4.456;2023-03-21T06:43:11;18.20;;;8.77;;
22715;SDS011;11525;51.152;4.456;2023-03-21T06:45:37;16.45;;;7.20;;
22715;SDS011;11525;51.152;4.456;2023-03-21T06:48:03;21.25;;;8.55;;
22715;SDS011;11525;51.152;4.456;2023-03-21T06:50:29;14.88;;;7.72;;
22715;SDS011;11525;51.152;4.456;2023-03-21T06:52:55;17.95;;;8.15;;
22715;SDS011;11525;51.152;4.456;2023-03-21T06:55:23;18.92;;;8.18;;
22715;SDS011;11525;51.152;4.456;2023-03-21T06:57:54;11.70;;;7.70;;
22715;SDS011;11525;51.152;4.456;2023-03-21T07:00:21;17.83;;;7.80;;
22715;SDS011;11525;51.152;4.456;2023-03-21T07:02:48;17.45;;;8.10;;
22715;SDS011;11525;51.152;4.456;2023-03-21T07:05:14;18.05;;;8.23;;
22715;SDS011;11525;51.152;4.456;2023-03-21T07:07:40;16.33;;;8.60;;
22715;SDS011;11525;51.152;4.456;2023-03-21T07:10:06;17.77;;;8.50;;
22715;SDS011;11525;51.152;4.456;2023-03-21T07:12:33;21.30;;;8.02;;
22715;SDS011;11525;51.152;4.456;2023-03-21T07:15:02;15.93;;;7.00;;
22715;SDS011;11525;51.152;4.456;2023-03-21T07:17:30;16.08;;;7.32;;
22715;SDS011;11525;51.152;4.456;2023-03-21T07:19:56;16.63;;;8.40;;
22715;SDS011;11525;51.152;4.456;2023-03-21T07:22:22;17.65;;;7.82;;
22715;SDS011;11525;51.152;4.456;2023-03-21T07:24:47;19.33;;;9.15;;
22715;SDS011;11525;51.152;4.456;2023-03-21T07:27:14;17.50;;;8.73;;
22715;SDS011;11525;51.152;4.456;2023-03-21T07:29:40;17.00;;;8.60;;
22715;SDS011;11525;51.152;4.456;2023-03-21T07:32:06;14.20;;;8.18;;
22715;SDS011;11525;51.152;4.456;2023-03-21T07:34:32;19.33;;;8.82;;
22715;SDS011;11525;51.152;4.456;2023-03-21T07:36:58;19.02;;;9.02;;
22715;SDS011;11525;51.152;4.456;2023-03-21T07:39:25;16.52;;;9.32;;
22715;SDS011;11525;51.152;4.456;2023-03-21T07:41:51;24.08;;;7.90;;
22715;SDS011;11525;51.152;4.456;2023-03-21T07:44:19;14.65;;;8.07;;
22715;SDS011;11525;51.152;4.456;2023-03-21T07:46:46;19.33;;;9.02;;
22715;SDS011;11525;51.152;4.456;2023-03-21T07:49:12;20.25;;;8.98;;
22715;SDS011;11525;51.152;4.456;2023-03-21T07:51:38;13.38;;;7.90;;
22715;SDS011;11525;51.152;4.456;2023-03-21T07:54:04;20.67;;;8.40;;
22715;SDS011;11525;51.152;4.456;2023-03-21T07:56:30;17.10;;;8.13;;
22715;SDS011;11525;51.152;4.456;2023-03-21T07:58:56;16.17;;;8.63;;
22715;SDS011;11525;51.152;4.456;2023-03-21T08:01:23;11.45;;;7.50;;
22715;SDS011;11525;51.152;4.456;2023-03-21T08:03:49;19.85;;;8.05;;
22715;SDS011;11525;51.152;4.456;2023-03-21T08:06:18;22.83;;;7.30;;
22715;SDS011;11525;51.152;4.456;2023-03-21T08:08:44;17.13;;;8.18;;
22715;SDS011;11525;51.152;4.456;2023-03-21T08:11:10;12.70;;;7.03;;
22715;SDS011;11525;51.152;4.456;2023-03-21T08:13:36;13.73;;;7.53;;
22715;SDS011;11525;51.152;4.456;2023-03-21T08:16:02;16.42;;;7.93;;
22715;SDS011;11525;51.152;4.456;2023-03-21T08:18:28;20.00;;;6.95;;
22715;SDS011;11525;51.152;4.456;2023-03-21T08:20:55;15.25;;;7.53;;
22715;SDS011;11525;51.152;4.456;2023-03-21T08:23:22;20.58;;;7.32;;
22715;SDS011;11525;51.152;4.456;2023-03-21T08:25:52;16.55;;;7.30;;
22715;SDS011;11525;51.152;4.456;2023-03-21T08:28:18;15.00;;;7.90;;
22715;SDS011;11525;51.152;4.456;2023-03-21T08:30:45;12.27;;;6.60;;
22715;SDS011;11525;51.152;4.456;2023-03-21T08:33:11;14.35;;;6.70;;
22715;SDS011;11525;51.152;4.456;2023-03-21T08:35:39;16.33;;;6.88;;
22715;SDS011;11525;51.152;4.456;2023-03-21T08:38:05;17.17;;;6.70;;
22715;SDS011;11525;51.152;4.456;2023-03-21T08:40:32;14.15;;;7.10;;
22715;SDS011;11525;51.152;4.456;2023-03-21T08:42:58;13.05;;;6.32;;
22715;SDS011;11525;51.152;4.456;2023-03-21T08:45:24;17.63;;;6.63;;
22715;SDS011;11525;51.152;4.456;2023-03-21T08:47:51;14.88;;;6.05;;
22715;SDS011;11525;51.152;4.456;2023-03-21T08:50:21;12.32;;;6.63;;
22715;SDS011;11525;51.152;4.456;2023-03-21T08:52:48;11.80;;;5.65;;
22715;SDS011;11525;51.152;4.456;2023-03-21T08:55:14;15.40;;;5.65;;
22715;SDS011;11525;51.152;4.456;2023-03-21T08:57:41;15.57;;;5.80;;
22715;SDS011;11525;51.152;4.456;2023-03-21T09:00:08;13.38;;;5.45;;
22715;SDS011;11525;51.152;4.456;2023-03-21T09:02:39;15.25;;;5.25;;
22715;SDS011;11525;51.152;4.456;2023-03-21T09:05:06;12.23;;;5.40;;
22715;SDS011;11525;51.152;4.456;2023-03-21T09:07:33;13.13;;;5.20;;
22715;SDS011;11525;51.152;4.456;2023-03-21T09:10:03;8.32;;;4.78;;
22715;SDS011;11525;51.152;4.456;2023-03-21T09:12:31;8.23;;;4.90;;
22715;SDS011;11525;51.152;4.456;2023-03-21T09:14:57;9.25;;;4.93;;
22715;SDS011;11525;51.152;4.456;2023-03-21T09:17:23;11.40;;;4.30;;
22715;SDS011;11525;51.152;4.456;2023-03-21T09:19:49;10.63;;;5.25;;
22715;SDS011;11525;51.152;4.456;2023-03-21T09:22:17;10.23;;;4.63;;
22715;SDS011;11525;51.152;4.456;2023-03-21T09:24:45;13.15;;;5.30;;
22715;SDS011;11525;51.152;4.456;2023-03-21T09:27:13;10.75;;;4.80;;
22715;SDS011;11525;51.152;4.456;2023-03-21T09:29:41;12.88;;;4.70;;
22715;SDS011;11525;51.152;4.456;2023-03-21T09:32:09;8.50;;;5.07;;
22715;SDS011;11525;51.152;4.456;2023-03-21T09:34:36;11.68;;;5.10;;
22715;SDS011;11525;51.152;4.456;2023-03-21T09:37:05;7.88;;;4.72;;
22715;SDS011;11525;51.152;4.456;2023-03-21T09:39:37;10.18;;;4.80;;
22715;SDS011;11525;51.152;4.456;2023-03-21T09:45:00;12.63;;;4.55;;
22715;SDS011;11525;51.152;4.456;2023-03-21T09:47:30;8.45;;;4.32;;
22715;SDS011;11525;51.152;4.456;2023-03-21T09:50:09;13.15;;;5.20;;
22715;SDS011;11525;51.152;4.456;2023-03-21T09:52:55;11.05;;;4.97;;
22715;SDS011;11525;51.152;4.456;2023-03-21T09:55:23;6.70;;;4.22;;
22715;SDS011;11525;51.152;4.456;2023-03-21T09:58:12;6.97;;;4.57;;
22715;SDS011;11525;51.152;4.456;2023-03-21T10:01:14;8.80;;;4.80;;
22715;SDS011;11525;51.152;4.456;2023-03-21T10:03:58;15.07;;;4.80;;
22715;SDS011;11525;51.152;4.456;2023-03-21T10:06:27;11.63;;;4.85;;
22715;SDS011;11525;51.152;4.456;2023-03-21T10:08:56;10.98;;;4.90;;
22715;SDS011;11525;51.152;4.456;2023-03-21T10:11:49;10.88;;;4.50;;
22715;SDS011;11525;51.152;4.456;2023-03-21T10:14:30;11.73;;;4.68;;
22715;SDS011;11525;51.152;4.456;2023-03-21T10:17:03;12.50;;;4.72;;
22715;SDS011;11525;51.152;4.456;2023-03-21T10:19:32;9.55;;;4.57;;
22715;SDS011;11525;51.152;4.456;2023-03-21T10:21:58;12.13;;;4.70;;
22715;SDS011;11525;51.152;4.456;2023-03-21T10:24:24;9.80;;;4.88;;
22715;SDS011;11525;51.152;4.456;2023-03-21T10:26:52;6.38;;;3.95;;
22715;SDS011;11525;51.152;4.456;2023-03-21T10:29:21;8.35;;;4.40;;
22715;SDS011;11525;51.152;4.456;2023-03-21T10:31:51;7.40;;;3.85;;
22715;SDS011;11525;51.152;4.456;2023-03-21T10:34:32;8.98;;;4.30;;
22715;SDS011;11525;51.152;4.456;2023-03-21T10:37:04;16.75;;;4.75;;
22715;SDS011;11525;51.152;4.456;2023-03-21T10:39:38;16.15;;;5.00;;
22715;SDS011;11525;51.152;4.456;2023-03-21T10:42:05;10.98;;;4.30;;
22715;SDS011;11525;51.152;4.456;2023-03-21T10:44:38;11.18;;;4.50;;
22715;SDS011;11525;51.152;4.456;2023-03-21T10:47:10;7.05;;;4.07;;
22715;SDS011;11525;51.152;4.456;2023-03-21T10:49:36;11.73;;;4.78;;
22715;SDS011;11525;51.152;4.456;2023-03-21T10:52:07;11.35;;;4.70;;
22715;SDS011;11525;51.152;4.456;2023-03-21T10:54:35;8.40;;;4.18;;
22715;SDS011;11525;51.152;4.456;2023-03-21T11:02:24;9.23;;;4.57;;
22715;SDS011;11525;51.152;4.456;2023-03-21T11:08:02;7.15;;;4.32;;
22715;SDS011;11525;51.152;4.456;2023-03-21T11:10:46;12.43;;;4.93;;
22715;SDS011;11525;51.152;4.456;2023-03-21T11:13:37;13.70;;;5.40;;
22715;SDS011;11525;51.152;4.456;2023-03-21T11:18:38;10.15;;;5.40;;
22715;SDS011;11525;51.152;4.456;2023-03-21T11:21:07;9.60;;;5.25;;
22715;SDS011;11525;51.152;4.456;2023-03-21T11:23:38;10.75;;;4.68;;
22715;SDS011;11525;51.152;4.456;2023-03-21T11:26:45;6.57;;;4.82;;
22715;SDS011;11525;51.152;4.456;2023-03-21T11:29:22;21.98;;;5.20;;
22715;SDS011;11525;51.152;4.456;2023-03-21T11:32:08;8.75;;;5.10;;
22715;SDS011;11525;51.152;4.456;2023-03-21T11:35:17;9.73;;;4.68;;
22715;SDS011;11525;51.152;4.456;2023-03-21T11:37:44;11.10;;;4.88;;
22715;SDS011;11525;51.152;4.456;2023-03-21T11:42:58;9.60;;;4.75;;
22715;SDS011;11525;51.152;4.456;2023-03-21T11:45:33;7.97;;;4.43;;
22715;SDS011;11525;51.152;4.456;2023-03-21T11:48:21;11.98;;;4.35;;
22715;SDS011;11525;51.152;4.456;2023-03-21T11:50:46;11.75;;;5.13;;
22715;SDS011;11525;51.152;4.456;2023-03-21T11:53:36;9.32;;;4.32;;
22715;SDS011;11525;51.152;4.456;2023-03-21T12:06:52;6.82;;;4.72;;
22715;SDS011;11525;51.152;4.456;2023-03-21T12:09:34;11.25;;;5.38;;
22715;SDS011;11525;51.152;4.456;2023-03-21T12:23:25;10.73;;;5.28;;
22715;SDS011;11525;51.152;4.456;2023-03-21T12:25:34;13.65;;;4.75;;
22715;SDS011;11525;51.152;4.456;2023-03-21T12:28:23;9.88;;;4.72;;
22715;SDS011;11525;51.152;4.456;2023-03-21T12:33:43;7.40;;;4.60;;
22715;SDS011;11525;51.152;4.456;2023-03-21T12:39:31;7.22;;;4.60;;
22715;SDS011;11525;51.152;4.456;2023-03-21T12:44:53;9.38;;;5.20;;
22715;SDS011;11525;51.152;4.456;2023-03-21T12:47:23;10.50;;;4.72;;
22715;SDS011;11525;51.152;4.456;2023-03-21T12:52:58;11.52;;;5.13;;
22715;SDS011;11525;51.152;4.456;2023-03-21T12:55:41;9.85;;;4.50;;
22715;SDS011;11525;51.152;4.456;2023-03-21T12:58:18;8.60;;;5.00;;
22715;SDS011;11525;51.152;4.456;2023-03-21T13:03:21;6.68;;;4.25;;
22715;SDS011;11525;51.152;4.456;2023-03-21T13:05:54;8.32;;;4.70;;
22715;SDS011;11525;51.152;4.456;2023-03-21T13:11:00;7.07;;;4.10;;
22715;SDS011;11525;51.152;4.456;2023-03-21T13:13:35;5.60;;;4.30;;
22715;SDS011;11525;51.152;4.456;2023-03-21T13:19:45;8.43;;;4.88;;
22715;SDS011;11525;51.152;4.456;2023-03-21T13:22:33;10.38;;;4.55;;
22715;SDS011;11525;51.152;4.456;2023-03-21T13:25:03;9.43;;;4.63;;
22715;SDS011;11525;51.152;4.456;2023-03-21T13:27:34;9.60;;;4.03;;
22715;SDS011;11525;51.152;4.456;2023-03-21T13:32:33;7.70;;;4.75;;
22715;SDS011;11525;51.152;4.456;2023-03-21T13:35:12;7.68;;;3.58;;
22715;SDS011;11525;51.152;4.456;2023-03-21T13:37:57;7.88;;;4.40;;
22715;SDS011;11525;51.152;4.456;2023-03-21T13:40:33;9.65;;;4.32;;
22715;SDS011;11525;51.152;4.456;2023-03-21T13:43:02;7.25;;;4.05;;
22715;SDS011;11525;51.152;4.456;2023-03-21T13:45:32;6.88;;;3.58;;
22715;SDS011;11525;51.152;4.456;2023-03-21T13:54:00;7.95;;;3.95;;
22715;SDS011;11525;51.152;4.456;2023-03-21T13:56:26;5.90;;;3.88;;
22715;SDS011;11525;51.152;4.456;2023-03-21T13:59:00;5.88;;;4.32;;
22715;SDS011;11525;51.152;4.456;2023-03-21T14:01:40;5.90;;;3.90;;
22715;SDS011;11525;51.152;4.456;2023-03-21T14:04:25;8.07;;;4.32;;
22715;SDS011;11525;51.152;4.456;2023-03-21T14:07:05;9.60;;;4.75;;
22715;SDS011;11525;51.152;4.456;2023-03-21T14:09:37;9.05;;;5.18;;
22715;SDS011;11525;51.152;4.456;2023-03-21T14:12:15;13.40;;;5.68;;
22715;SDS011;11525;51.152;4.456;2023-03-21T14:14:52;9.05;;;4.95;;
22715;SDS011;11525;51.152;4.456;2023-03-21T14:17:29;9.70;;;5.10;;
22715;SDS011;11525;51.152;4.456;2023-03-21T14:20:10;9.63;;;5.13;;
22715;SDS011;11525;51.152;4.456;2023-03-21T14:22:40;7.05;;;5.00;;
22715;SDS011;11525;51.152;4.456;2023-03-21T14:25:13;9.02;;;5.00;;
22715;SDS011;11525;51.152;4.456;2023-03-21T14:27:44;13.05;;;5.38;;
22715;SDS011;11525;51.152;4.456;2023-03-21T14:30:22;7.82;;;4.97;;
22715;SDS011;11525;51.152;4.456;2023-03-21T14:32:58;6.45;;;4.30;;
22715;SDS011;11525;51.152;4.456;2023-03-21T14:35:42;7.97;;;4.93;;
22715;SDS011;11525;51.152;4.456;2023-03-21T14:38:24;5.95;;;5.32;;
22715;SDS011;11525;51.152;4.456;2023-03-21T14:40:54;10.70;;;5.47;;
22715;SDS011;11525;51.152;4.456;2023-03-21T14:43:22;10.77;;;6.75;;
22715;SDS011;11525;51.152;4.456;2023-03-21T14:45:50;11.23;;;6.82;;
22715;SDS011;11525;51.152;4.456;2023-03-21T14:48:18;8.77;;;5.82;;
22715;SDS011;11525;51.152;4.456;2023-03-21T14:50:47;9.55;;;6.05;;
22715;SDS011;11525;51.152;4.456;2023-03-21T14:53:28;15.05;;;7.35;;
22715;SDS011;11525;51.152;4.456;2023-03-21T14:55:57;9.50;;;6.03;;
22715;SDS011;11525;51.152;4.456;2023-03-21T14:58:23;8.88;;;6.13;;
22715;SDS011;11525;51.152;4.456;2023-03-21T15:00:50;14.02;;;7.55;;
22715;SDS011;11525;51.152;4.456;2023-03-21T15:03:19;10.73;;;5.22;;
22715;SDS011;11525;51.152;4.456;2023-03-21T15:05:47;10.23;;;6.90;;
22715;SDS011;11525;51.152;4.456;2023-03-21T15:08:14;13.10;;;7.45;;
22715;SDS011;11525;51.152;4.456;2023-03-21T15:10:52;12.05;;;7.05;;
22715;SDS011;11525;51.152;4.456;2023-03-21T15:13:33;14.98;;;6.50;;
22715;SDS011;11525;51.152;4.456;2023-03-21T15:16:01;12.15;;;7.53;;
22715;SDS011;11525;51.152;4.456;2023-03-21T15:18:32;8.23;;;6.78;;
22715;SDS011;11525;51.152;4.456;2023-03-21T15:21:02;9.52;;;6.40;;
22715;SDS011;11525;51.152;4.456;2023-03-21T15:23:39;9.05;;;7.20;;
22715;SDS011;11525;51.152;4.456;2023-03-21T15:26:11;13.10;;;6.70;;
22715;SDS011;11525;51.152;4.456;2023-03-21T15:28:41;12.05;;;6.55;;
22715;SDS011;11525;51.152;4.456;2023-03-21T15:31:16;13.20;;;7.70;;
22715;SDS011;11525;51.152;4.456;2023-03-21T15:33:45;12.07;;;6.93;;
22715;SDS011;11525;51.152;4.456;2023-03-21T15:36:18;10.07;;;7.03;;
22715;SDS011;11525;51.152;4.456;2023-03-21T15:38:47;9.77;;;6.80;;
22715;SDS011;11525;51.152;4.456;2023-03-21T15:51:48;11.15;;;6.85;;
22715;SDS011;11525;51.152;4.456;2023-03-21T15:54:28;10.32;;;6.10;;
22715;SDS011;11525;51.152;4.456;2023-03-21T15:57:28;13.48;;;6.18;;
22715;SDS011;11525;51.152;4.456;2023-03-21T16:00:17;8.50;;;6.32;;
22715;SDS011;11525;51.152;4.456;2023-03-21T16:02:50;7.93;;;6.20;;
22715;SDS011;11525;51.152;4.456;2023-03-21T16:10:41;10.35;;;5.70;;
22715;SDS011;11525;51.152;4.456;2023-03-21T16:13:09;9.15;;;6.47;;
22715;SDS011;11525;51.152;4.456;2023-03-21T16:15:37;9.35;;;6.50;;
22715;SDS011;11525;51.152;4.456;2023-03-21T16:18:04;10.98;;;7.03;;
22715;SDS011;11525;51.152;4.456;2023-03-21T16:20:33;10.20;;;6.78;;
22715;SDS011;11525;51.152;4.456;2023-03-21T16:23:01;7.85;;;6.68;;
22715;SDS011;11525;51.152;4.456;2023-03-21T16:25:30;8.45;;;6.72;;
22715;SDS011;11525;51.152;4.456;2023-03-21T16:27:57;13.73;;;6.45;;
22715;SDS011;11525;51.152;4.456;2023-03-21T16:30:23;8.95;;;6.00;;
22715;SDS011;11525;51.152;4.456;2023-03-21T16:32:49;8.90;;;6.30;;
22715;SDS011;11525;51.152;4.456;2023-03-21T16:35:16;7.47;;;6.68;;
22715;SDS011;11525;51.152;4.456;2023-03-21T16:37:42;11.32;;;5.60;;
22715;SDS011;11525;51.152;4.456;2023-03-21T16:40:16;14.95;;;5.47;;
22715;SDS011;11525;51.152;4.456;2023-03-21T16:42:42;7.63;;;5.25;;
22715;SDS011;11525;51.152;4.456;2023-03-21T16:45:10;7.40;;;5.68;;
22715;SDS011;11525;51.152;4.456;2023-03-21T16:47:36;8.25;;;5.70;;
22715;SDS011;11525;51.152;4.456;2023-03-21T16:50:08;12.15;;;5.80;;
22715;SDS011;11525;51.152;4.456;2023-03-21T16:52:45;9.10;;;5.90;;
22715;SDS011;11525;51.152;4.456;2023-03-21T16:55:10;6.50;;;5.70;;
22715;SDS011;11525;51.152;4.456;2023-03-21T16:57:36;6.10;;;5.50;;